createdAt,value
2023-05-14T00:00:42.829Z,94529.00
2023-05-14T00:01:42.900Z,94529.00
2023-05-14T00:02:43.041Z,94527.00
2023-05-14T00:03:43.013Z,94529.00
2023-05-14T00:04:43.010Z,94529.00
2023-05-14T00:05:43.058Z,94527.00
2023-05-14T00:06:43.100Z,94531.00
2023-05-14T00:07:43.156Z,94531.00
2023-05-14T00:08:43.203Z,94531.00
2023-05-14T00:09:43.273Z,94533.00
2023-05-14T00:10:43.325Z,94531.00
2023-05-14T00:11:43.379Z,94531.00
2023-05-14T00:12:43.427Z,94529.00
2023-05-14T00:13:43.513Z,94529.00
2023-05-14T00:14:43.540Z,94531.00
2023-05-14T00:15:43.668Z,94527.00
2023-05-14T00:16:43.641Z,94527.00
2023-05-14T00:17:43.712Z,94527.00
2023-05-14T00:18:43.776Z,94525.00
2023-05-14T00:19:43.788Z,94527.00
2023-05-14T00:20:43.840Z,94525.00
2023-05-14T00:21:43.889Z,94529.00
2023-05-14T00:22:43.952Z,94525.00
2023-05-14T00:23:43.983Z,94527.00
2023-05-14T00:24:44.041Z,94525.00
2023-05-14T00:25:44.090Z,94523.00
2023-05-14T00:26:44.126Z,94521.00
2023-05-14T00:27:44.161Z,94519.00
2023-05-14T00:28:44.211Z,94521.00
2023-05-14T00:29:44.284Z,94519.00
2023-05-14T00:30:44.328Z,94515.00
2023-05-14T00:31:44.458Z,94515.00
2023-05-14T00:32:44.479Z,94517.00
2023-05-14T00:33:44.504Z,94511.00
2023-05-14T00:34:44.564Z,94513.00
2023-05-14T00:35:44.612Z,94515.00
2023-05-14T00:36:44.686Z,94513.00
2023-05-14T00:37:44.722Z,94513.00
2023-05-14T00:38:44.772Z,94511.00
2023-05-14T00:39:44.864Z,94511.00
2023-05-14T00:40:44.882Z,94513.00
2023-05-14T00:41:44.930Z,94513.00
2023-05-14T00:42:44.982Z,94513.00
2023-05-14T00:43:45.050Z,94513.00
2023-05-14T00:44:45.102Z,94513.00
2023-05-14T00:45:45.150Z,94513.00
2023-05-14T00:46:45.205Z,94515.00
2023-05-14T00:47:45.271Z,94517.00
2023-05-14T00:48:45.296Z,94517.00
2023-05-14T00:49:45.346Z,94515.00
2023-05-14T00:50:45.423Z,94517.00
2023-05-14T00:51:45.475Z,94515.00
2023-05-14T00:52:45.496Z,94517.00
2023-05-14T00:53:45.564Z,94517.00
2023-05-14T00:54:45.630Z,94515.00
2023-05-14T00:55:45.690Z,94511.00
2023-05-14T00:56:45.743Z,94517.00
2023-05-14T00:57:45.811Z,94513.00
2023-05-14T00:58:45.806Z,94513.00
2023-05-14T00:59:45.881Z,94513.00
2023-05-14T01:00:45.966Z,94513.00
2023-05-14T01:01:45.970Z,94513.00
2023-05-14T01:02:46.118Z,94513.00
2023-05-14T01:03:46.198Z,94513.00
2023-05-14T01:04:46.176Z,94513.00
2023-05-14T01:05:46.176Z,94515.00
2023-05-14T01:06:46.231Z,94511.00
2023-05-14T01:07:46.321Z,94513.00
2023-05-14T01:08:46.324Z,94511.00
2023-05-14T01:09:46.387Z,94509.00
2023-05-14T01:10:46.415Z,94509.00
2023-05-14T01:11:46.459Z,94511.00
2023-05-14T01:12:46.504Z,94509.00
2023-05-14T01:13:46.549Z,94509.00
2023-05-14T01:14:46.611Z,94509.00
2023-05-14T01:15:46.611Z,94507.00
2023-05-14T01:16:46.770Z,94505.00
2023-05-14T01:17:46.733Z,94507.00
2023-05-14T01:18:46.799Z,94505.00
2023-05-14T01:19:46.808Z,94503.00
2023-05-14T01:20:46.876Z,94503.00
2023-05-14T01:21:46.901Z,94503.00
2023-05-14T01:22:46.952Z,94502.00
2023-05-14T01:23:46.981Z,94503.00
2023-05-14T01:24:47.029Z,94502.00
2023-05-14T01:25:47.070Z,94505.00
2023-05-14T01:26:47.131Z,94503.00
2023-05-14T01:27:47.169Z,94503.00
2023-05-14T01:28:47.196Z,94503.00
2023-05-14T01:29:47.249Z,94503.00
2023-05-14T01:30:47.263Z,94503.00
2023-05-14T01:31:47.359Z,94503.00
2023-05-14T01:32:47.356Z,94503.00
2023-05-14T01:33:47.374Z,94503.00
2023-05-14T01:34:47.440Z,94502.00
2023-05-14T01:35:47.465Z,94503.00
2023-05-14T01:36:47.531Z,94503.00
2023-05-14T01:37:47.574Z,94503.00
2023-05-14T01:38:47.617Z,94503.00
2023-05-14T01:39:47.651Z,94503.00
2023-05-14T01:40:47.715Z,94502.00
2023-05-14T01:41:47.734Z,94503.00
2023-05-14T01:42:47.865Z,94507.00
2023-05-14T01:43:47.829Z,94503.00
2023-05-14T01:44:47.871Z,94503.00
2023-05-14T01:45:47.994Z,94500.00
2023-05-14T01:46:47.960Z,94503.00
2023-05-14T01:47:48.021Z,94502.00
2023-05-14T01:48:48.063Z,94502.00
2023-05-14T01:49:48.084Z,94503.00
2023-05-14T01:50:48.160Z,94502.00
2023-05-14T01:51:48.180Z,94503.00
2023-05-14T01:52:48.292Z,94503.00
2023-05-14T01:53:48.267Z,94502.00
2023-05-14T01:54:48.323Z,94502.00
2023-05-14T01:55:48.352Z,94500.00
2023-05-14T01:56:48.400Z,94500.00
2023-05-14T01:57:48.448Z,94502.00
2023-05-14T01:58:48.486Z,94498.00
2023-05-14T01:59:48.540Z,94494.00
2023-05-14T02:00:48.604Z,94498.00
2023-05-14T02:01:48.694Z,94498.00
2023-05-14T02:02:48.722Z,94498.00
2023-05-14T02:03:48.741Z,94494.00
2023-05-14T02:04:48.761Z,94492.00
2023-05-14T02:05:48.804Z,94494.00
2023-05-14T02:06:48.855Z,94492.00
2023-05-14T02:07:48.929Z,94490.00
2023-05-14T02:08:48.951Z,94490.00
2023-05-14T02:09:49.014Z,94492.00
2023-05-14T02:10:49.047Z,94490.00
2023-05-14T02:11:49.132Z,94488.00
2023-05-14T02:12:49.119Z,94488.00
2023-05-14T02:13:49.187Z,94488.00
2023-05-14T02:14:49.214Z,94486.00
2023-05-14T02:15:49.268Z,94486.00
2023-05-14T02:16:49.307Z,94486.00
2023-05-14T02:17:49.354Z,94484.00
2023-05-14T02:18:49.405Z,94484.00
2023-05-14T02:19:49.394Z,94484.00
2023-05-14T02:20:49.430Z,94482.00
2023-05-14T02:21:49.454Z,94484.00
2023-05-14T02:22:49.525Z,94484.00
2023-05-14T02:23:49.616Z,94484.00
2023-05-14T02:24:49.556Z,94484.00
2023-05-14T02:25:49.581Z,94484.00
2023-05-14T02:26:49.618Z,94486.00
2023-05-14T02:27:49.669Z,94484.00
2023-05-14T02:28:49.690Z,94484.00
2023-05-14T02:29:49.747Z,94482.00
2023-05-14T02:30:49.773Z,94482.00
2023-05-14T02:31:49.913Z,94482.00
2023-05-14T02:32:49.935Z,94480.00
2023-05-14T02:33:49.896Z,94482.00
2023-05-14T02:34:49.950Z,94478.00
2023-05-14T02:35:50.022Z,94482.00
2023-05-14T02:36:50.077Z,94482.00
2023-05-14T02:37:50.100Z,94482.00
2023-05-14T02:38:50.134Z,94476.00
2023-05-14T02:39:50.158Z,94478.00
2023-05-14T02:40:50.216Z,94478.00
2023-05-14T02:41:50.228Z,94474.00
2023-05-14T02:42:50.293Z,94476.00
2023-05-14T02:43:50.301Z,94474.00
2023-05-14T02:44:50.340Z,94472.00
2023-05-14T02:45:50.375Z,94470.00
2023-05-14T02:46:50.497Z,94470.00
2023-05-14T02:47:50.473Z,94468.00
2023-05-14T02:48:50.504Z,94466.00
2023-05-14T02:49:50.528Z,94464.00
2023-05-14T02:50:50.599Z,94464.00
2023-05-14T02:51:50.619Z,94464.00
2023-05-14T02:52:50.635Z,94462.00
2023-05-14T02:53:50.668Z,94456.00
2023-05-14T02:54:50.694Z,94458.00
2023-05-14T02:55:50.726Z,94458.00
2023-05-14T02:56:50.781Z,94458.00
2023-05-14T02:57:50.779Z,94458.00
2023-05-14T02:58:50.845Z,94460.00
2023-05-14T02:59:50.843Z,94460.00
2023-05-14T03:00:50.932Z,94462.00
2023-05-14T03:01:50.946Z,94462.00
2023-05-14T03:02:51.055Z,94462.00
2023-05-14T03:03:51.017Z,94458.00
2023-05-14T03:04:51.056Z,94458.00
2023-05-14T03:05:51.111Z,94458.00
2023-05-14T03:06:51.149Z,94460.00
2023-05-14T03:07:51.187Z,94462.00
2023-05-14T03:08:51.220Z,94458.00
2023-05-14T03:09:51.279Z,94460.00
2023-05-14T03:10:51.348Z,94460.00
2023-05-14T03:11:51.301Z,94460.00
2023-05-14T03:12:51.316Z,94462.00
2023-05-14T03:13:51.381Z,94460.00
2023-05-14T03:14:51.377Z,94460.00
2023-05-14T03:15:51.410Z,94460.00
2023-05-14T03:16:51.562Z,94458.00
2023-05-14T03:17:51.527Z,94460.00
2023-05-14T03:18:51.579Z,94458.00
2023-05-14T03:19:51.548Z,94460.00
2023-05-14T03:20:51.627Z,94458.00
2023-05-14T03:21:51.611Z,94456.00
2023-05-14T03:22:51.639Z,94456.00
2023-05-14T03:23:51.679Z,94455.00
2023-05-14T03:24:51.724Z,94455.00
2023-05-14T03:25:51.760Z,94451.00
2023-05-14T03:26:51.797Z,94451.00
2023-05-14T03:27:51.815Z,94449.00
2023-05-14T03:28:51.858Z,94449.00
2023-05-14T03:29:51.895Z,94447.00
2023-05-14T03:30:52.001Z,94445.00
2023-05-14T03:31:51.946Z,94451.00
2023-05-14T03:32:52.029Z,94447.00
2023-05-14T03:33:52.052Z,94449.00
2023-05-14T03:34:52.077Z,94447.00
2023-05-14T03:35:52.099Z,94447.00
2023-05-14T03:36:52.136Z,94447.00
2023-05-14T03:37:52.137Z,94445.00
2023-05-14T03:38:52.175Z,94451.00
2023-05-14T03:39:52.230Z,94451.00
2023-05-14T03:40:52.257Z,94451.00
2023-05-14T03:41:52.300Z,94451.00
2023-05-14T03:42:52.400Z,94453.00
2023-05-14T03:43:52.404Z,94451.00
2023-05-14T03:44:52.448Z,94453.00
2023-05-14T03:45:52.734Z,94451.00
2023-05-14T03:46:52.525Z,94451.00
2023-05-14T03:47:52.657Z,94451.00
2023-05-14T03:48:52.670Z,94447.00
2023-05-14T03:49:52.675Z,94447.00
2023-05-14T03:50:52.713Z,94447.00
2023-05-14T03:51:52.757Z,94447.00
2023-05-14T03:52:52.775Z,94449.00
2023-05-14T03:53:52.797Z,94453.00
2023-05-14T03:54:52.841Z,94451.00
2023-05-14T03:55:52.888Z,94451.00
2023-05-14T03:56:52.962Z,94455.00
2023-05-14T03:57:52.983Z,94455.00
2023-05-14T03:58:52.992Z,94455.00
2023-05-14T03:59:53.035Z,94456.00
2023-05-14T04:00:53.085Z,94456.00
2023-05-14T04:01:53.148Z,94458.00
2023-05-14T04:02:53.272Z,94458.00
2023-05-14T04:03:53.352Z,94456.00
2023-05-14T04:04:53.268Z,94458.00
2023-05-14T04:05:53.275Z,94462.00
2023-05-14T04:06:53.340Z,94462.00
2023-05-14T04:07:53.335Z,94458.00
2023-05-14T04:08:53.381Z,94458.00
2023-05-14T04:09:53.398Z,94460.00
2023-05-14T04:10:53.423Z,94458.00
2023-05-14T04:11:53.469Z,94456.00
2023-05-14T04:12:53.511Z,94460.00
2023-05-14T04:13:53.583Z,94458.00
2023-05-14T04:14:53.600Z,94460.00
2023-05-14T04:15:53.662Z,94458.00
2023-05-14T04:16:53.693Z,94456.00
2023-05-14T04:17:53.740Z,94456.00
2023-05-14T04:18:53.766Z,94451.00
2023-05-14T04:19:53.793Z,94449.00
2023-05-14T04:20:53.820Z,94451.00
2023-05-14T04:21:53.874Z,94447.00
2023-05-14T04:22:53.931Z,94443.00
2023-05-14T04:23:53.919Z,94443.00
2023-05-14T04:24:53.946Z,94445.00
2023-05-14T04:25:53.997Z,94445.00
2023-05-14T04:26:54.041Z,94447.00
2023-05-14T04:27:54.055Z,94449.00
2023-05-14T04:28:54.082Z,94447.00
2023-05-14T04:29:54.144Z,94447.00
2023-05-14T04:30:54.173Z,94445.00
2023-05-14T04:31:54.225Z,94451.00
2023-05-14T04:32:54.267Z,94447.00
2023-05-14T04:33:54.294Z,94449.00
2023-05-14T04:34:54.331Z,94449.00
2023-05-14T04:35:54.364Z,94449.00
2023-05-14T04:36:54.422Z,94449.00
2023-05-14T04:37:54.479Z,94447.00
2023-05-14T04:38:54.498Z,94449.00
2023-05-14T04:39:54.541Z,94447.00
2023-05-14T04:40:54.605Z,94453.00
2023-05-14T04:41:54.618Z,94449.00
2023-05-14T04:42:54.647Z,94449.00
2023-05-14T04:43:54.676Z,94451.00
2023-05-14T04:44:54.707Z,94451.00
2023-05-14T04:45:54.826Z,94447.00
2023-05-14T04:46:54.804Z,94449.00
2023-05-14T04:47:54.876Z,94447.00
2023-05-14T04:48:54.859Z,94449.00
2023-05-14T04:49:54.885Z,94447.00
2023-05-14T04:50:54.938Z,94451.00
2023-05-14T04:51:54.970Z,94451.00
2023-05-14T04:52:54.991Z,94451.00
2023-05-14T04:53:55.048Z,94451.00
2023-05-14T04:54:55.076Z,94453.00
2023-05-14T04:55:55.162Z,94456.00
2023-05-14T04:56:55.184Z,94455.00
2023-05-14T04:57:55.205Z,94456.00
2023-05-14T04:58:55.243Z,94455.00
2023-05-14T04:59:55.275Z,94455.00
2023-05-14T05:00:55.337Z,94453.00
2023-05-14T05:01:55.368Z,94449.00
2023-05-14T05:02:55.460Z,94445.00
2023-05-14T05:03:55.506Z,94447.00
2023-05-14T05:04:55.455Z,94441.00
2023-05-14T05:05:55.481Z,94439.00
2023-05-14T05:06:55.526Z,94437.00
2023-05-14T05:07:55.560Z,94439.00
2023-05-14T05:08:55.601Z,94441.00
2023-05-14T05:09:55.642Z,94441.00
2023-05-14T05:10:55.692Z,94443.00
2023-05-14T05:11:55.707Z,94445.00
2023-05-14T05:12:55.769Z,94447.00
2023-05-14T05:13:55.798Z,94449.00
2023-05-14T05:14:55.823Z,94453.00
2023-05-14T05:15:55.981Z,94451.00
2023-05-14T05:16:55.921Z,94453.00
2023-05-14T05:17:56.004Z,94453.00
2023-05-14T05:18:56.026Z,94453.00
2023-05-14T05:19:56.039Z,94455.00
2023-05-14T05:20:56.083Z,94456.00
2023-05-14T05:21:56.116Z,94456.00
2023-05-14T05:22:56.147Z,94455.00
2023-05-14T05:23:56.174Z,94455.00
2023-05-14T05:24:56.216Z,94451.00
2023-05-14T05:25:56.279Z,94451.00
2023-05-14T05:26:56.310Z,94449.00
2023-05-14T05:27:56.356Z,94447.00
2023-05-14T05:28:56.392Z,94447.00
2023-05-14T05:29:56.419Z,94447.00
2023-05-14T05:30:56.490Z,94447.00
2023-05-14T05:31:56.531Z,94447.00
2023-05-14T05:32:56.567Z,94449.00
2023-05-14T05:33:56.620Z,94445.00
2023-05-14T05:34:56.675Z,94451.00
2023-05-14T05:35:56.746Z,94449.00
2023-05-14T05:36:56.740Z,94449.00
2023-05-14T05:37:57.692Z,94447.00
2023-05-14T05:38:56.817Z,94453.00
2023-05-14T05:39:56.874Z,94451.00
2023-05-14T05:40:56.963Z,94453.00
2023-05-14T05:41:56.952Z,94455.00
2023-05-14T05:42:57.004Z,94456.00
2023-05-14T05:43:57.055Z,94455.00
2023-05-14T05:44:57.065Z,94458.00
2023-05-14T05:45:57.185Z,94455.00
2023-05-14T05:46:57.326Z,94458.00
2023-05-14T05:47:57.311Z,94460.00
2023-05-14T05:48:57.307Z,94458.00
2023-05-14T05:49:57.361Z,94460.00
2023-05-14T05:50:57.397Z,94458.00
2023-05-14T05:51:57.467Z,94458.00
2023-05-14T05:52:57.495Z,94456.00
2023-05-14T05:53:57.540Z,94456.00
2023-05-14T05:54:57.595Z,94458.00
2023-05-14T05:55:57.642Z,94455.00
2023-05-14T05:56:58.608Z,94453.00
2023-05-14T05:57:57.719Z,94453.00
2023-05-14T05:58:57.752Z,94453.00
2023-05-14T05:59:57.782Z,94453.00
2023-05-14T06:00:57.825Z,94451.00
2023-05-14T06:01:57.989Z,94451.00
2023-05-14T06:02:57.931Z,94451.00
2023-05-14T06:03:57.967Z,94449.00
2023-05-14T06:04:58.028Z,94447.00
2023-05-14T06:05:58.022Z,94447.00
2023-05-14T06:06:58.075Z,94445.00
2023-05-14T06:07:58.116Z,94441.00
2023-05-14T06:08:58.157Z,94443.00
2023-05-14T06:09:58.201Z,94443.00
2023-05-14T06:10:58.261Z,94441.00
2023-05-14T06:11:58.303Z,94441.00
2023-05-14T06:12:58.316Z,94439.00
2023-05-14T06:13:58.405Z,94437.00
2023-05-14T06:14:58.407Z,94437.00
2023-05-14T06:15:58.480Z,94435.00
2023-05-14T06:16:58.594Z,94435.00
2023-05-14T06:17:58.570Z,94435.00
2023-05-14T06:18:58.718Z,94437.00
2023-05-14T06:19:58.640Z,94437.00
2023-05-14T06:20:58.661Z,94439.00
2023-05-14T06:21:58.690Z,94437.00
2023-05-14T06:22:58.715Z,94437.00
2023-05-14T06:23:58.773Z,94439.00
2023-05-14T06:24:58.804Z,94439.00
2023-05-14T06:25:58.824Z,94435.00
2023-05-14T06:26:58.870Z,94433.00
2023-05-14T06:27:58.906Z,94433.00
2023-05-14T06:28:58.989Z,94429.00
2023-05-14T06:29:59.002Z,94431.00
2023-05-14T06:30:59.047Z,94431.00
2023-05-14T06:31:59.223Z,94431.00
2023-05-14T06:32:59.206Z,94431.00
2023-05-14T06:33:59.161Z,94429.00
2023-05-14T06:34:59.225Z,94431.00
2023-05-14T06:35:59.352Z,94431.00
2023-05-14T06:36:59.428Z,94429.00
2023-05-14T06:37:59.430Z,94431.00
2023-05-14T06:38:59.485Z,94429.00
2023-05-14T06:39:59.525Z,94427.00
2023-05-14T06:40:59.550Z,94425.00
2023-05-14T06:41:59.610Z,94425.00
2023-05-14T06:42:59.642Z,94421.00
2023-05-14T06:43:59.706Z,94419.00
2023-05-14T06:44:59.717Z,94421.00
2023-05-14T06:45:59.751Z,94417.00
2023-05-14T06:46:59.821Z,94417.00
2023-05-14T06:47:59.980Z,94421.00
2023-05-14T06:48:59.923Z,94417.00
2023-05-14T06:49:59.946Z,94421.00
2023-05-14T06:51:00.000Z,94421.00
2023-05-14T06:52:00.003Z,94421.00
2023-05-14T06:53:00.031Z,94423.00
2023-05-14T06:54:00.041Z,94421.00
2023-05-14T06:55:00.068Z,94421.00
2023-05-14T06:56:00.146Z,94423.00
2023-05-14T06:57:00.165Z,94423.00
2023-05-14T06:58:00.211Z,94423.00
2023-05-14T06:59:00.249Z,94427.00
2023-05-14T07:00:01.723Z,94427.00
2023-05-14T07:01:00.340Z,94425.00
2023-05-14T07:02:00.336Z,94429.00
2023-05-14T07:03:00.345Z,94425.00
2023-05-14T07:04:00.354Z,94429.00
2023-05-14T07:05:00.287Z,94427.00
2023-05-14T07:06:00.224Z,94423.00
2023-05-14T07:07:00.227Z,94423.00
2023-05-14T07:08:00.223Z,94421.00
2023-05-14T07:09:00.225Z,94419.00
2023-05-14T07:10:00.221Z,94417.00
2023-05-14T07:11:00.220Z,94415.00
2023-05-14T07:12:00.245Z,94413.00
2023-05-14T07:13:00.202Z,94411.00
2023-05-14T07:14:00.183Z,94409.00
2023-05-14T07:15:00.167Z,94408.00
2023-05-14T07:16:00.186Z,94406.00
2023-05-14T07:17:00.228Z,94408.00
2023-05-14T07:18:00.327Z,94404.00
2023-05-14T07:19:00.201Z,94406.00
2023-05-14T07:20:00.182Z,94406.00
2023-05-14T07:21:00.151Z,94408.00
2023-05-14T07:22:00.142Z,94408.00
2023-05-14T07:23:00.136Z,94408.00
2023-05-14T07:24:00.168Z,94406.00
2023-05-14T07:25:00.144Z,94406.00
2023-05-14T07:26:00.179Z,94406.00
2023-05-14T07:27:00.134Z,94396.00
2023-05-14T07:28:00.101Z,94398.00
2023-05-14T07:29:00.118Z,94394.00
2023-05-14T07:30:00.145Z,94396.00
2023-05-14T07:31:00.151Z,94392.00
2023-05-14T07:32:00.094Z,94394.00
2023-05-14T07:33:00.089Z,94390.00
2023-05-14T07:34:00.109Z,94388.00
2023-05-14T07:35:00.036Z,94386.00
2023-05-14T07:36:00.052Z,94382.00
2023-05-14T07:37:00.033Z,94382.00
2023-05-14T07:38:00.080Z,94386.00
2023-05-14T07:39:00.125Z,94386.00
2023-05-14T07:40:00.005Z,94382.00
2023-05-14T07:40:59.991Z,94382.00
2023-05-14T07:42:00.005Z,94380.00
2023-05-14T07:43:00.001Z,94380.00
2023-05-14T07:43:59.978Z,94376.00
2023-05-14T07:44:59.968Z,94376.00
2023-05-14T07:45:59.975Z,94374.00
2023-05-14T07:47:00.006Z,94372.00
2023-05-14T07:48:00.093Z,94370.00
2023-05-14T07:48:59.944Z,94372.00
2023-05-14T07:49:59.948Z,94362.00
2023-05-14T07:50:59.943Z,94370.00
2023-05-14T07:51:59.923Z,94370.00
2023-05-14T07:52:59.912Z,94370.00
2023-05-14T07:53:59.922Z,94360.00
2023-05-14T07:54:59.925Z,94358.00
2023-05-14T07:55:59.931Z,94356.00
2023-05-14T07:56:59.911Z,94355.00
2023-05-14T07:57:59.889Z,94353.00
2023-05-14T07:58:59.891Z,94356.00
2023-05-14T07:59:59.887Z,94355.00
2023-05-14T08:00:59.893Z,94353.00
2023-05-14T08:01:59.985Z,94351.00
2023-05-14T08:03:00.216Z,94349.00
2023-05-14T08:04:00.122Z,94347.00
2023-05-14T08:05:00.039Z,94345.00
2023-05-14T08:06:00.092Z,94343.00
2023-05-14T08:07:00.169Z,94339.00
2023-05-14T08:08:00.169Z,94341.00
2023-05-14T08:09:00.165Z,94339.00
2023-05-14T08:10:00.208Z,94337.00
2023-05-14T08:11:00.388Z,94337.00
2023-05-14T08:12:00.263Z,94335.00
2023-05-14T08:13:00.284Z,94335.00
2023-05-14T08:14:00.327Z,94333.00
2023-05-14T08:15:00.378Z,94331.00
2023-05-14T08:16:00.439Z,94331.00
2023-05-14T08:17:00.519Z,94329.00
2023-05-14T08:18:00.501Z,94327.00
2023-05-14T08:19:00.638Z,94325.00
2023-05-14T08:20:00.576Z,94327.00
2023-05-14T08:21:02.696Z,94325.00
2023-05-14T08:22:00.612Z,94327.00
2023-05-14T08:23:00.615Z,94325.00
2023-05-14T08:24:00.601Z,94323.00
2023-05-14T08:25:00.636Z,94323.00
2023-05-14T08:26:00.579Z,94323.00
2023-05-14T08:27:00.597Z,94321.00
2023-05-14T08:28:00.570Z,94319.00
2023-05-14T08:29:00.577Z,94317.00
2023-05-14T08:30:00.557Z,94317.00
2023-05-14T08:31:00.614Z,94311.00
2023-05-14T08:32:08.473Z,94311.00
2023-05-14T08:33:01.582Z,94311.00
2023-05-14T08:34:00.533Z,94309.00
2023-05-14T08:35:00.535Z,94308.00
2023-05-14T08:36:00.542Z,94306.00
2023-05-14T08:37:00.525Z,94306.00
2023-05-14T08:38:00.507Z,94308.00
2023-05-14T08:39:00.505Z,94306.00
2023-05-14T08:40:00.533Z,94306.00
2023-05-14T08:41:00.515Z,94304.00
2023-05-14T08:42:00.480Z,94302.00
2023-05-14T08:43:00.520Z,94302.00
2023-05-14T08:44:00.564Z,94304.00
2023-05-14T08:45:00.613Z,94304.00
2023-05-14T08:46:00.643Z,94302.00
2023-05-14T08:47:00.744Z,94302.00
2023-05-14T08:48:00.842Z,94300.00
2023-05-14T08:49:00.814Z,94302.00
2023-05-14T08:50:00.823Z,94300.00
2023-05-14T08:51:00.891Z,94298.00
2023-05-14T08:52:00.945Z,94296.00
2023-05-14T08:53:00.990Z,94296.00
2023-05-14T08:54:01.036Z,94296.00
2023-05-14T08:55:01.090Z,94296.00
2023-05-14T08:56:01.136Z,94294.00
2023-05-14T08:57:01.209Z,94294.00
2023-05-14T08:58:01.257Z,94292.00
2023-05-14T08:59:01.282Z,94294.00
2023-05-14T09:00:01.371Z,94292.00
2023-05-14T09:01:01.384Z,94290.00
2023-05-14T09:02:01.605Z,94288.00
2023-05-14T09:03:01.539Z,94292.00
2023-05-14T09:04:01.654Z,94288.00
2023-05-14T09:05:01.609Z,94286.00
2023-05-14T09:06:01.648Z,94286.00
2023-05-14T09:07:01.745Z,94282.00
2023-05-14T09:08:01.766Z,94282.00
2023-05-14T09:09:01.801Z,94282.00
2023-05-14T09:10:01.857Z,94282.00
2023-05-14T09:11:01.893Z,94284.00
2023-05-14T09:12:01.956Z,94282.00
2023-05-14T09:13:01.973Z,94286.00
2023-05-14T09:14:02.008Z,94282.00
2023-05-14T09:15:02.053Z,94282.00
2023-05-14T09:16:02.184Z,94284.00
2023-05-14T09:17:02.129Z,94284.00
2023-05-14T09:18:02.201Z,94282.00
2023-05-14T09:19:02.316Z,94284.00
2023-05-14T09:20:02.255Z,94282.00
2023-05-14T09:21:02.308Z,94282.00
2023-05-14T09:22:02.391Z,94280.00
2023-05-14T09:23:02.435Z,94282.00
2023-05-14T09:24:02.412Z,94280.00
2023-05-14T09:25:02.450Z,94280.00
2023-05-14T09:26:02.518Z,94280.00
2023-05-14T09:27:02.580Z,94278.00
2023-05-14T09:28:02.686Z,94276.00
2023-05-14T09:29:02.680Z,94274.00
2023-05-14T09:30:02.673Z,94270.00
2023-05-14T09:31:02.696Z,94270.00
2023-05-14T09:32:02.837Z,94268.00
2023-05-14T09:33:02.867Z,94264.00
2023-05-14T09:34:02.823Z,94261.00
2023-05-14T09:35:02.869Z,94261.00
2023-05-14T09:36:02.909Z,94261.00
2023-05-14T09:37:02.976Z,94261.00
2023-05-14T09:38:02.979Z,94261.00
2023-05-14T09:39:03.016Z,94259.00
2023-05-14T09:40:03.042Z,94255.00
2023-05-14T09:41:03.080Z,94255.00
2023-05-14T09:42:03.133Z,94253.00
2023-05-14T09:43:03.187Z,94251.00
2023-05-14T09:44:04.721Z,94253.00
2023-05-14T09:45:03.197Z,94251.00
2023-05-14T09:46:03.203Z,94247.00
2023-05-14T09:47:03.303Z,94245.00
2023-05-14T09:48:03.361Z,94243.00
2023-05-14T09:49:03.197Z,94241.00
2023-05-14T09:50:03.183Z,94241.00
2023-05-14T09:51:04.627Z,94237.00
2023-05-14T09:52:03.168Z,94233.00
2023-05-14T09:53:03.153Z,94231.00
2023-05-14T09:54:03.152Z,94229.00
2023-05-14T09:55:03.132Z,94231.00
2023-05-14T09:56:03.125Z,94231.00
2023-05-14T09:57:03.156Z,94227.00
2023-05-14T09:58:03.128Z,94223.00
2023-05-14T09:59:03.099Z,94229.00
2023-05-14T10:00:03.094Z,94223.00
2023-05-14T10:01:03.137Z,94221.00
2023-05-14T10:02:03.114Z,94223.00
2023-05-14T10:03:03.114Z,94223.00
2023-05-14T10:04:03.134Z,94223.00
2023-05-14T10:05:03.088Z,94223.00
2023-05-14T10:06:03.065Z,94223.00
2023-05-14T10:07:03.093Z,94219.00
2023-05-14T10:08:03.044Z,94219.00
2023-05-14T10:09:03.040Z,94217.00
2023-05-14T10:10:03.047Z,94217.00
2023-05-14T10:11:03.077Z,94215.00
2023-05-14T10:12:03.162Z,94217.00
2023-05-14T10:13:03.155Z,94215.00
2023-05-14T10:14:03.185Z,94215.00
2023-05-14T10:15:03.215Z,94215.00
2023-05-14T10:16:03.261Z,94213.00
2023-05-14T10:17:03.389Z,94213.00
2023-05-14T10:18:03.357Z,94215.00
2023-05-14T10:19:03.383Z,94211.00
2023-05-14T10:20:03.403Z,94211.00
2023-05-14T10:21:03.412Z,94209.00
2023-05-14T10:22:03.462Z,94207.00
2023-05-14T10:23:03.508Z,94206.00
2023-05-14T10:24:03.534Z,94206.00
2023-05-14T10:25:03.586Z,94204.00
2023-05-14T10:26:03.656Z,94202.00
2023-05-14T10:27:03.648Z,94202.00
2023-05-14T10:28:03.708Z,94200.00
2023-05-14T10:29:03.721Z,94200.00
2023-05-14T10:30:03.761Z,94198.00
2023-05-14T10:31:03.862Z,94196.00
2023-05-14T10:32:03.846Z,94196.00
2023-05-14T10:33:03.907Z,94196.00
2023-05-14T10:34:03.917Z,94192.00
2023-05-14T10:35:03.947Z,94194.00
2023-05-14T10:36:03.979Z,94192.00
2023-05-14T10:37:04.031Z,94192.00
2023-05-14T10:38:04.055Z,94192.00
2023-05-14T10:39:04.100Z,94192.00
2023-05-14T10:40:04.109Z,94192.00
2023-05-14T10:41:04.156Z,94192.00
2023-05-14T10:42:04.166Z,94192.00
2023-05-14T10:43:04.233Z,94188.00
2023-05-14T10:44:04.254Z,94190.00
2023-05-14T10:45:04.267Z,94190.00
2023-05-14T10:46:04.336Z,94188.00
2023-05-14T10:47:04.418Z,94188.00
2023-05-14T10:48:04.408Z,94188.00
2023-05-14T10:49:04.420Z,94190.00
2023-05-14T10:50:04.451Z,94186.00
2023-05-14T10:51:04.546Z,94188.00
2023-05-14T10:52:04.507Z,94186.00
2023-05-14T10:53:04.524Z,94184.00
2023-05-14T10:54:04.571Z,94186.00
2023-05-14T10:55:04.604Z,94182.00
2023-05-14T10:56:04.624Z,94180.00
2023-05-14T10:57:04.673Z,94176.00
2023-05-14T10:58:04.674Z,94178.00
2023-05-14T10:59:04.692Z,94170.00
2023-05-14T11:00:04.724Z,94170.00
2023-05-14T11:01:04.765Z,94168.00
2023-05-14T11:02:04.917Z,94168.00
2023-05-14T11:03:04.836Z,94164.00
2023-05-14T11:04:04.862Z,94164.00
2023-05-14T11:05:04.894Z,94162.00
2023-05-14T11:06:04.907Z,94160.00
2023-05-14T11:07:04.943Z,94159.00
2023-05-14T11:08:05.016Z,94157.00
2023-05-14T11:09:05.007Z,94153.00
2023-05-14T11:10:05.034Z,94153.00
2023-05-14T11:11:05.068Z,94153.00
2023-05-14T11:12:05.097Z,94149.00
2023-05-14T11:13:05.154Z,94153.00
2023-05-14T11:14:05.164Z,94151.00
2023-05-14T11:15:05.174Z,94151.00
2023-05-14T11:16:21.157Z,94153.00
2023-05-14T11:17:06.280Z,94149.00
2023-05-14T11:18:05.238Z,94149.00
2023-05-14T11:19:05.238Z,94149.00
2023-05-14T11:20:05.186Z,94149.00
2023-05-14T11:21:05.209Z,94149.00
2023-05-14T11:22:05.192Z,94145.00
2023-05-14T11:23:05.176Z,94145.00
2023-05-14T11:24:05.164Z,94145.00
2023-05-14T11:25:05.169Z,94143.00
2023-05-14T11:26:05.156Z,94137.00
2023-05-14T11:27:05.141Z,94139.00
2023-05-14T11:28:05.161Z,94137.00
2023-05-14T11:29:05.136Z,94141.00
2023-05-14T11:30:05.161Z,94135.00
2023-05-14T11:31:05.123Z,94137.00
2023-05-14T11:32:05.195Z,94135.00
2023-05-14T11:33:05.204Z,94135.00
2023-05-14T11:34:05.180Z,94135.00
2023-05-14T11:35:05.217Z,94137.00
2023-05-14T11:36:05.266Z,94135.00
2023-05-14T11:37:05.289Z,94135.00
2023-05-14T11:38:06.448Z,94135.00
2023-05-14T11:39:05.521Z,94133.00
2023-05-14T11:40:05.552Z,94137.00
2023-05-14T11:41:05.617Z,94137.00
2023-05-14T11:42:05.680Z,94141.00
2023-05-14T11:43:05.688Z,94141.00
2023-05-14T11:44:07.875Z,94143.00
2023-05-14T11:45:05.743Z,94141.00